Time;durP1;ratioP1;P1;durP2;ratioP2;P2;SDS_P1;SDS_P2;PMS_P1;PMS_P2;Temp;Humidity;BMP_temperature;BMP_pressure;BME280_temperature;BME280_humidity;BME280_pressure;Samples;Min_cycle;Max_cycle;Signal;HPM_P1;HPM_P2
2023/06/19 00:00:12;;;;;;;5.60;5.10;;;25.20;52.10;;;;;;5010650;28;89284;-88
2023/06/19 00:02:39;;;;;;;5.72;5.13;;;25.20;52.20;;;;;;5029400;28;86795;-86
2023/06/19 00:05:05;;;;;;;5.53;5.03;;;25.20;52.20;;;;;;5029141;28;85905;-88
2023/06/19 00:07:31;;;;;;;5.85;5.20;;;25.20;52.10;;;;;;5030852;28;86955;-91
2023/06/19 00:09:56;;;;;;;5.90;5.30;;;25.20;52.30;;;;;;5029257;28;90039;-86
2023/06/19 00:12:22;;;;;;;4.95;4.53;;;25.20;52.20;;;;;;5029987;28;89102;-84
2023/06/19 00:14:47;;;;;;;5.78;4.95;;;25.20;52.10;;;;;;5031795;27;86438;-89
2023/06/19 00:17:16;;;;;;;5.82;5.25;;;25.20;52.10;;;;;;5032689;28;85998;-87
2023/06/19 00:19:42;;;;;;;5.55;5.05;;;25.20;52.20;;;;;;5030405;27;86348;-84
2023/06/19 00:22:08;;;;;;;6.13;5.47;;;25.20;52.40;;;;;;5028084;28;88383;-92
2023/06/19 00:24:33;;;;;;;6.90;5.43;;;25.20;52.20;;;;;;5028712;28;86797;-89
2023/06/19 00:27:02;;;;;;;5.28;4.78;;;25.20;52.10;;;;;;5030796;27;86802;-86
2023/06/19 00:29:32;;;;;;;6.32;5.72;;;25.20;52.30;;;;;;5032892;28;86431;-90
2023/06/19 00:31:59;;;;;;;5.95;5.25;;;25.20;52.10;;;;;;5032725;28;86087;-92
2023/06/19 00:34:24;;;;;;;5.65;5.15;;;25.20;52.30;;;;;;5012762;28;86722;-88
2023/06/19 00:36:56;;;;;;;5.95;5.22;;;25.20;52.30;;;;;;5012240;28;86220;-87
2023/06/19 00:39:25;;;;;;;5.40;4.90;;;25.20;52.40;;;;;;5030845;28;88126;-91
2023/06/19 00:41:54;;;;;;;5.18;4.68;;;25.20;52.40;;;;;;5028171;27;86520;-92
2023/06/19 00:44:20;;;;;;;5.65;5.03;;;25.20;52.30;;;;;;5031463;28;86690;-88
2023/06/19 00:46:46;;;;;;;5.90;5.18;;;25.20;52.40;;;;;;5029141;28;86159;-91
2023/06/19 00:49:15;;;;;;;5.78;5.28;;;25.20;52.30;;;;;;5031626;27;87160;-88
2023/06/19 00:51:40;;;;;;;5.70;5.18;;;25.20;52.30;;;;;;5031686;28;86585;-90
2023/06/19 00:54:06;;;;;;;7.85;5.05;;;25.20;52.40;;;;;;5031527;28;86524;-91
2023/06/19 00:56:34;;;;;;;5.22;4.72;;;25.20;52.30;;;;;;5032215;28;86034;-86
2023/06/19 00:59:01;;;;;;;5.57;5.07;;;25.20;52.20;;;;;;5030880;27;87298;-88
2023/06/19 01:01:28;;;;;;;5.63;5.13;;;25.20;52.30;;;;;;5030913;27;86412;-86
2023/06/19 01:03:54;;;;;;;5.20;4.70;;;25.20;52.30;;;;;;5032178;28;86056;-95
2023/06/19 01:06:29;;;;;;;5.88;5.28;;;25.20;52.30;;;;;;5013028;28;86305;-88
2023/06/19 01:09:07;;;;;;;6.13;5.10;;;25.20;52.20;;;;;;5031619;27;86898;-85
2023/06/19 01:11:39;;;;;;;5.10;4.70;;;25.20;52.30;;;;;;5012414;28;88991;-93
2023/06/19 01:14:28;;;;;;;5.47;4.78;;;25.20;52.30;;;;;;5030592;27;86235;-88
2023/06/19 01:16:54;;;;;;;5.40;4.90;;;25.20;52.50;;;;;;5031496;28;86005;-92
2023/06/19 01:19:21;;;;;;;5.78;5.25;;;25.20;52.50;;;;;;5030838;28;86501;-89
2023/06/19 01:21:47;;;;;;;5.32;4.88;;;25.10;52.20;;;;;;5026506;28;87358;-85
2023/06/19 01:24:14;;;;;;;5.93;5.43;;;25.10;52.20;;;;;;5028094;27;86932;-86
2023/06/19 01:26:41;;;;;;;5.72;5.22;;;25.20;52.40;;;;;;5029011;28;86090;-86
2023/06/19 01:29:07;;;;;;;5.35;4.85;;;25.10;52.40;;;;;;5029830;28;90173;-87
2023/06/19 01:31:50;;;;;;;5.55;4.93;;;25.20;52.50;;;;;;5031471;28;86202;-86
2023/06/19 01:34:19;;;;;;;5.65;5.15;;;25.10;52.40;;;;;;5031274;28;86194;-86
2023/06/19 01:36:47;;;;;;;5.43;4.93;;;25.10;52.50;;;;;;5028599;27;85829;-89
2023/06/19 01:39:14;;;;;;;5.70;5.20;;;25.10;52.40;;;;;;5029927;28;86499;-87
2023/06/19 01:41:41;;;;;;;4.93;4.53;;;25.10;52.50;;;;;;5030269;28;86847;-86
2023/06/19 01:44:07;;;;;;;5.40;4.90;;;25.10;52.40;;;;;;5031828;27;86121;-85
2023/06/19 01:46:33;;;;;;;5.68;5.07;;;25.10;52.40;;;;;;5030303;28;86083;-87
2023/06/19 01:48:59;;;;;;;5.20;4.70;;;25.10;52.50;;;;;;5030502;28;86274;-88
2023/06/19 01:51:24;;;;;;;5.45;4.95;;;25.10;52.50;;;;;;5030686;28;86060;-90
2023/06/19 01:53:50;;;;;;;4.97;4.53;;;25.10;52.60;;;;;;5030793;27;86269;-85
2023/06/19 01:56:16;;;;;;;5.45;4.95;;;25.10;52.60;;;;;;5031543;28;86442;-86
2023/06/19 01:58:41;;;;;;;5.30;4.80;;;25.10;52.60;;;;;;5030859;28;86540;-88
2023/06/19 02:01:07;;;;;;;5.40;4.90;;;25.10;52.40;;;;;;5027264;28;86844;-86
2023/06/19 02:03:33;;;;;;;5.20;4.72;;;25.10;52.40;;;;;;5028674;27;86537;-91
2023/06/19 02:05:58;;;;;;;5.78;5.28;;;25.10;52.50;;;;;;5031716;28;86393;-92
2023/06/19 02:08:24;;;;;;;4.82;4.32;;;25.10;52.40;;;;;;5035726;28;85691;-88
2023/06/19 02:10:49;;;;;;;5.20;4.70;;;25.10;52.60;;;;;;5033539;28;86520;-86
2023/06/19 02:13:15;;;;;;;5.68;5.10;;;25.10;52.50;;;;;;5034020;27;85638;-90
2023/06/19 02:15:41;;;;;;;5.20;4.72;;;25.10;52.50;;;;;;5034243;28;86216;-90
2023/06/19 02:18:07;;;;;;;5.50;5.00;;;25.10;52.60;;;;;;5034153;28;86468;-87
2023/06/19 02:20:34;;;;;;;4.90;4.38;;;25.10;52.50;;;;;;5033964;28;86063;-85
2023/06/19 02:22:59;;;;;;;6.28;5.68;;;25.10;52.40;;;;;;5032621;27;85845;-89
2023/06/19 02:25:25;;;;;;;4.95;4.45;;;25.10;52.50;;;;;;5033649;27;86725;-87
2023/06/19 02:27:51;;;;;;;4.80;4.40;;;25.10;52.50;;;;;;5031189;27;89781;-94
2023/06/19 02:30:16;;;;;;;5.43;4.93;;;25.10;52.50;;;;;;5033917;28;88333;-91
2023/06/19 02:32:42;;;;;;;4.85;4.45;;;25.10;52.60;;;;;;5016522;28;86281;-90
2023/06/19 02:35:11;;;;;;;5.05;4.55;;;25.10;52.50;;;;;;5033418;27;85653;-91
2023/06/19 02:37:37;;;;;;;5.00;4.50;;;25.10;52.50;;;;;;5033310;28;86743;-90
2023/06/19 02:40:07;;;;;;;5.50;4.95;;;25.10;52.50;;;;;;5028479;28;89056;-93
2023/06/19 02:42:33;;;;;;;4.93;4.43;;;25.10;52.50;;;;;;5033395;27;86380;-89
2023/06/19 02:45:02;;;;;;;4.85;4.35;;;25.10;52.50;;;;;;5034633;28;86364;-90
2023/06/19 02:47:30;;;;;;;5.13;4.65;;;25.00;52.60;;;;;;5034404;28;86561;-87
2023/06/19 02:49:56;;;;;;;4.97;4.57;;;25.00;52.50;;;;;;5033063;28;87209;-90
2023/06/19 02:52:22;;;;;;;4.72;4.32;;;25.00;52.60;;;;;;5033835;28;86142;-86
2023/06/19 02:54:48;;;;;;;5.25;4.75;;;25.00;52.60;;;;;;5033451;27;85858;-93
2023/06/19 02:57:13;;;;;;;4.72;4.32;;;25.00;52.50;;;;;;5032975;27;86676;-89
2023/06/19 02:59:39;;;;;;;5.85;5.35;;;25.00;52.60;;;;;;5033691;28;86376;-90
2023/06/19 03:02:05;;;;;;;5.30;4.80;;;25.00;52.50;;;;;;5034902;27;86294;-88
2023/06/19 03:04:30;;;;;;;4.72;4.32;;;25.00;52.70;;;;;;5034172;27;86073;-89
2023/06/19 03:06:56;;;;;;;5.38;4.85;;;25.00;52.60;;;;;;5013236;28;89379;-88
2023/06/19 03:09:21;;;;;;;4.88;4.47;;;25.00;52.70;;;;;;5013121;28;89117;-84
2023/06/19 03:11:47;;;;;;;5.28;4.78;;;25.00;53.20;;;;;;5033130;28;85853;-86
2023/06/19 03:14:12;;;;;;;5.10;4.60;;;25.00;52.60;;;;;;5014557;28;86334;-88
2023/06/19 03:16:38;;;;;;;6.55;4.82;;;25.00;52.40;;;;;;5031890;27;86523;-87
2023/06/19 03:19:04;;;;;;;4.50;4.10;;;25.00;52.60;;;;;;5032779;27;86705;-90
2023/06/19 03:21:29;;;;;;;4.97;4.47;;;25.00;52.50;;;;;;5014272;28;86225;-90
2023/06/19 03:23:55;;;;;;;4.78;4.38;;;25.00;52.70;;;;;;5033946;28;86198;-90
2023/06/19 03:26:21;;;;;;;4.88;4.47;;;25.00;52.70;;;;;;5034512;28;87303;-88
2023/06/19 03:28:47;;;;;;;5.63;5.03;;;25.00;52.60;;;;;;5034764;28;86368;-91
2023/06/19 03:31:13;;;;;;;5.10;4.60;;;25.00;52.60;;;;;;5015271;28;86392;-89
2023/06/19 03:33:39;;;;;;;4.57;4.18;;;25.00;52.60;;;;;;5015226;28;86241;-92
2023/06/19 03:36:05;;;;;;;5.32;4.82;;;25.00;52.70;;;;;;5033723;28;86564;-87
2023/06/19 03:38:31;;;;;;;5.10;4.65;;;25.00;52.60;;;;;;5015517;28;89101;-92
2023/06/19 03:40:56;;;;;;;4.57;4.18;;;25.00;52.70;;;;;;5032668;27;86827;-84
2023/06/19 03:43:22;;;;;;;4.40;4.00;;;25.00;52.90;;;;;;5032695;28;86815;-86
2023/06/19 03:45:48;;;;;;;4.72;4.28;;;25.00;52.70;;;;;;5033191;27;86903;-87
2023/06/19 03:48:13;;;;;;;5.35;4.85;;;25.00;52.90;;;;;;5033840;27;86306;-88
2023/06/19 03:50:39;;;;;;;4.97;4.53;;;25.00;52.80;;;;;;5033272;28;86102;-86
2023/06/19 03:53:05;;;;;;;4.88;4.47;;;25.00;52.80;;;;;;5013552;28;86022;-90
2023/06/19 03:55:30;;;;;;;4.53;4.13;;;25.00;52.70;;;;;;5030872;28;88350;-86
2023/06/19 03:57:56;;;;;;;5.30;4.00;;;25.00;52.70;;;;;;5032459;28;85792;-87
2023/06/19 04:00:22;;;;;;;4.75;4.35;;;25.00;53.50;;;;;;5031795;28;86555;-85
2023/06/19 04:02:48;;;;;;;4.45;4.05;;;25.00;52.80;;;;;;5032063;27;86379;-93
2023/06/19 04:05:15;;;;;;;4.82;4.43;;;25.00;52.80;;;;;;5032421;28;86513;-86
2023/06/19 04:07:44;;;;;;;5.20;4.70;;;25.00;52.90;;;;;;5031395;27;86071;-90
2023/06/19 04:10:11;;;;;;;4.63;4.22;;;25.00;52.80;;;;;;5032511;28;85956;-86
2023/06/19 04:12:37;;;;;;;5.07;4.57;;;25.00;53.00;;;;;;5032932;28;86211;-93
2023/06/19 04:15:03;;;;;;;4.40;3.88;;;25.00;52.90;;;;;;5032672;28;86310;-93
2023/06/19 04:17:29;;;;;;;4.55;3.97;;;25.00;52.90;;;;;;5032919;28;87646;-88
2023/06/19 04:19:55;;;;;;;4.38;3.97;;;25.00;52.90;;;;;;5032631;28;86380;-90
2023/06/19 04:22:20;;;;;;;4.30;3.42;;;24.90;53.30;;;;;;5030722;28;86565;-85
2023/06/19 04:24:46;;;;;;;4.90;4.20;;;24.90;53.70;;;;;;5027948;27;86152;-89
2023/06/19 04:27:11;;;;;;;4.45;3.50;;;24.80;54.20;;;;;;5011516;28;87857;-87
2023/06/19 04:29:37;;;;;;;4.43;3.45;;;24.80;54.60;;;;;;5032678;28;86318;-91
2023/06/19 04:32:11;;;;;;;7.60;3.97;;;24.80;54.90;;;;;;5032518;27;86221;-89
2023/06/19 04:34:38;;;;;;;5.07;3.47;;;24.80;55.30;;;;;;5032122;27;86750;-85
2023/06/19 04:37:04;;;;;;;4.72;3.55;;;24.80;55.50;;;;;;5032506;27;86759;-87
2023/06/19 04:39:30;;;;;;;8.38;4.60;;;24.80;55.90;;;;;;5012825;28;86036;-91
2023/06/19 04:41:55;;;;;;;9.40;4.32;;;24.70;56.40;;;;;;5031761;28;85966;-89
2023/06/19 04:44:21;;;;;;;11.18;4.43;;;24.70;57.40;;;;;;5033298;28;86425;-85
2023/06/19 04:46:47;;;;;;;8.13;3.60;;;24.60;58.70;;;;;;5032224;28;87322;-88
2023/06/19 04:49:12;;;;;;;4.50;3.47;;;24.50;58.60;;;;;;5012241;28;86533;-87
2023/06/19 04:51:40;;;;;;;5.35;3.33;;;24.50;59.30;;;;;;5032844;27;86220;-88
2023/06/19 04:54:05;;;;;;;4.75;3.53;;;24.50;59.60;;;;;;5012860;28;89293;-88
2023/06/19 04:56:32;;;;;;;4.90;3.13;;;24.50;59.80;;;;;;5032879;28;86307;-88
2023/06/19 04:58:59;;;;;;;5.35;3.50;;;24.40;60.00;;;;;;5031495;28;85666;-88
2023/06/19 05:01:30;;;;;;;6.38;3.28;;;24.30;60.10;;;;;;5032784;28;86485;-86
2023/06/19 05:03:56;;;;;;;5.82;3.33;;;24.40;60.20;;;;;;5032587;28;85831;-86
2023/06/19 05:06:26;;;;;;;3.40;3.10;;;24.30;60.60;;;;;;5012134;28;87146;-89
2023/06/19 05:08:52;;;;;;;5.45;2.92;;;24.30;60.70;;;;;;5030998;27;86185;-85
2023/06/19 05:11:18;;;;;;;5.85;3.40;;;24.30;61.00;;;;;;5027935;28;85656;-89
2023/06/19 05:13:43;;;;;;;6.00;3.60;;;24.30;60.90;;;;;;5029045;28;89994;-90
2023/06/19 05:16:10;;;;;;;6.85;3.45;;;24.30;61.20;;;;;;5031178;27;86569;-89
2023/06/19 05:18:35;;;;;;;4.18;2.80;;;24.30;61.30;;;;;;5011830;28;85793;-85
2023/06/19 05:21:01;;;;;;;6.45;4.05;;;24.20;61.50;;;;;;5028993;27;86178;-87
2023/06/19 05:23:27;;;;;;;5.13;3.38;;;24.20;61.70;;;;;;5028200;28;86479;-90
2023/06/19 05:25:52;;;;;;;3.70;3.05;;;24.10;61.80;;;;;;5028189;28;85880;-84
2023/06/19 05:28:18;;;;;;;3.80;3.00;;;24.20;61.90;;;;;;5032112;28;86541;-92
2023/06/19 05:30:44;;;;;;;5.85;2.80;;;24.10;61.80;;;;;;5031979;28;86916;-95
2023/06/19 05:33:15;;;;;;;4.55;3.00;;;24.10;61.40;;;;;;5032408;28;86714;-86
2023/06/19 05:35:41;;;;;;;5.55;3.05;;;24.10;61.00;;;;;;5034310;28;86596;-84
2023/06/19 05:38:07;;;;;;;5.13;3.00;;;24.10;61.10;;;;;;5036180;27;86136;-91
2023/06/19 05:40:33;;;;;;;3.63;3.05;;;24.10;60.70;;;;;;5035989;28;87108;-86
2023/06/19 05:42:58;;;;;;;3.08;2.83;;;24.10;60.60;;;;;;5036522;27;87526;-93
2023/06/19 05:45:24;;;;;;;6.80;3.15;;;24.30;60.50;;;;;;5035760;27;86667;-93
2023/06/19 05:47:50;;;;;;;5.00;2.92;;;24.30;59.90;;;;;;5017638;28;86535;-83
2023/06/19 05:50:15;;;;;;;5.70;2.90;;;24.40;59.60;;;;;;5035414;28;86502;-88
2023/06/19 05:52:43;;;;;;;4.80;2.83;;;24.40;59.20;;;;;;5036116;28;86405;-93
2023/06/19 05:55:10;;;;;;;4.22;2.78;;;24.40;59.60;;;;;;5035130;27;87086;-88
2023/06/19 05:57:35;;;;;;;5.35;3.15;;;24.40;59.10;;;;;;5035405;27;86107;-86
2023/06/19 06:00:01;;;;;;;5.50;2.70;;;24.40;59.10;;;;;;5035025;28;86573;-89
2023/06/19 06:02:28;;;;;;;4.30;2.40;;;24.40;58.60;;;;;;5034497;28;86747;-89
2023/06/19 06:04:53;;;;;;;4.47;3.17;;;24.50;58.30;;;;;;5034258;28;85834;-83
2023/06/19 06:07:19;;;;;;;4.57;2.38;;;24.60;58.10;;;;;;5016528;28;86666;-87
2023/06/19 06:09:45;;;;;;;2.50;2.10;;;24.60;58.00;;;;;;5033031;28;86349;-91
2023/06/19 06:12:11;;;;;;;4.50;2.30;;;24.70;57.60;;;;;;5018719;28;88678;-85
2023/06/19 06:14:37;;;;;;;3.67;2.65;;;24.70;57.70;;;;;;5042232;28;85700;-84
2023/06/19 06:17:05;;;;;;;3.72;3.33;;;24.70;57.50;;;;;;5021510;28;86538;-86
2023/06/19 06:19:30;;;;;;;4.85;2.72;;;24.70;57.40;;;;;;5024676;28;85972;-87
2023/06/19 06:21:56;;;;;;;4.28;3.35;;;24.70;57.50;;;;;;5047685;28;86496;-90
2023/06/19 06:24:22;;;;;;;7.38;2.85;;;24.70;57.30;;;;;;5020195;28;87361;-87
2023/06/19 06:26:47;;;;;;;4.03;2.97;;;24.70;57.50;;;;;;5031643;28;86299;-91
2023/06/19 06:29:13;;;;;;;4.20;2.92;;;24.70;57.70;;;;;;5032450;28;86499;-93
2023/06/19 06:31:41;;;;;;;5.57;3.30;;;24.60;57.80;;;;;;5029234;28;89048;-91
2023/06/19 06:34:07;;;;;;;4.97;3.25;;;24.60;57.40;;;;;;5013997;28;88870;-85
2023/06/19 06:36:32;;;;;;;5.32;2.97;;;24.60;57.60;;;;;;5036495;27;87579;-88
2023/06/19 06:38:58;;;;;;;3.90;3.40;;;24.60;57.30;;;;;;5038339;28;91463;-92
2023/06/19 06:41:24;;;;;;;6.03;3.60;;;24.60;57.20;;;;;;5035996;28;86794;-86
2023/06/19 06:43:49;;;;;;;3.35;3.00;;;24.60;57.00;;;;;;5014695;28;88389;-94
2023/06/19 06:46:15;;;;;;;5.63;3.83;;;24.60;57.00;;;;;;5034658;28;86284;-88
2023/06/19 06:48:46;;;;;;;7.30;3.22;;;24.60;57.50;;;;;;5013378;28;86689;-87
2023/06/19 06:51:12;;;;;;;5.72;3.60;;;24.70;56.90;;;;;;5034484;28;87173;-87
2023/06/19 06:53:38;;;;;;;5.78;3.67;;;24.70;56.80;;;;;;5032271;28;87288;-89
2023/06/19 06:56:04;;;;;;;3.83;3.42;;;24.70;56.50;;;;;;5032284;28;86426;-88
2023/06/19 06:58:30;;;;;;;7.65;3.50;;;24.70;56.50;;;;;;5026702;28;86278;-91
2023/06/19 07:00:56;;;;;;;6.03;3.67;;;24.70;56.10;;;;;;5029735;27;86171;-86
2023/06/19 07:03:21;;;;;;;7.80;4.03;;;24.60;55.80;;;;;;5028907;27;86892;-87
2023/06/19 07:05:48;;;;;;;5.28;3.50;;;24.60;55.90;;;;;;5011964;28;86636;-85
2023/06/19 07:08:13;;;;;;;5.03;3.50;;;24.60;56.10;;;;;;5012095;28;85639;-87
2023/06/19 07:10:39;;;;;;;9.85;3.85;;;24.60;56.10;;;;;;5036260;27;86706;-87
2023/06/19 07:13:06;;;;;;;6.75;4.00;;;24.70;56.20;;;;;;5035753;27;86216;-87
2023/06/19 07:15:32;;;;;;;6.22;3.72;;;24.60;55.80;;;;;;5040067;28;86323;-87
2023/06/19 07:17:57;;;;;;;7.30;3.55;;;24.60;55.70;;;;;;5019578;28;86708;-87
2023/06/19 07:20:23;;;;;;;5.75;4.20;;;24.50;55.70;;;;;;5016510;28;89734;-88
2023/06/19 07:22:52;;;;;;;12.23;3.20;;;24.60;55.50;;;;;;5011685;28;89164;-89
2023/06/19 07:25:18;;;;;;;5.03;3.75;;;24.60;55.30;;;;;;5012090;28;87214;-88
2023/06/19 07:27:44;;;;;;;8.95;3.83;;;24.50;55.00;;;;;;5011514;28;86189;-84
2023/06/19 07:30:11;;;;;;;6.80;3.65;;;24.50;55.40;;;;;;5031633;28;87467;-85
2023/06/19 07:32:37;;;;;;;4.53;3.60;;;24.50;55.50;;;;;;5035795;28;87969;-88
2023/06/19 07:35:05;;;;;;;4.03;3.20;;;24.50;55.50;;;;;;5013538;28;86695;-87
2023/06/19 07:37:32;;;;;;;4.38;3.60;;;24.60;55.40;;;;;;5035417;28;85973;-90
2023/06/19 07:39:57;;;;;;;3.17;2.88;;;24.60;55.30;;;;;;5033041;28;88367;-88
2023/06/19 07:42:23;;;;;;;6.30;3.75;;;24.60;55.10;;;;;;5030777;28;87487;-90
2023/06/19 07:44:49;;;;;;;7.03;3.50;;;24.60;55.30;;;;;;5016986;27;86726;-89
2023/06/19 07:47:16;;;;;;;6.05;4.15;;;24.60;55.30;;;;;;5036123;28;86749;-87
2023/06/19 07:49:42;;;;;;;7.78;3.88;;;24.60;55.00;;;;;;5031712;28;89683;-91
2023/06/19 07:52:09;;;;;;;7.07;3.63;;;24.60;55.30;;;;;;5036578;28;86142;-88
2023/06/19 07:54:35;;;;;;;7.05;3.45;;;24.50;55.50;;;;;;5019058;28;86913;-88
2023/06/19 07:57:01;;;;;;;5.85;3.63;;;24.50;55.60;;;;;;5017979;28;86374;-87
2023/06/19 07:59:26;;;;;;;5.80;3.70;;;24.50;55.70;;;;;;5019811;28;88484;-88
2023/06/19 08:01:52;;;;;;;4.80;3.55;;;24.50;55.40;;;;;;5015935;28;88846;-87
2023/06/19 08:04:22;;;;;;;5.43;3.47;;;24.50;55.50;;;;;;5015054;28;86155;-86
2023/06/19 08:06:47;;;;;;;5.28;3.65;;;24.50;55.80;;;;;;5013464;28;86543;-88
2023/06/19 08:09:24;;;;;;;7.00;3.53;;;24.50;55.90;;;;;;5013978;28;88323;-86
2023/06/19 08:11:50;;;;;;;6.60;3.40;;;24.60;55.80;;;;;;5031875;27;87612;-89
2023/06/19 08:14:15;;;;;;;5.13;3.70;;;24.60;55.90;;;;;;5015876;28;86260;-85
2023/06/19 08:16:41;;;;;;;5.57;3.20;;;24.60;56.70;;;;;;5033993;28;85842;-92
2023/06/19 08:19:06;;;;;;;4.43;3.38;;;24.50;56.10;;;;;;5031919;28;86935;-84
2023/06/19 08:21:32;;;;;;;4.18;3.35;;;24.50;56.20;;;;;;5013069;28;87989;-85
2023/06/19 08:23:58;;;;;;;6.60;3.95;;;24.50;56.30;;;;;;5033241;28;86150;-88
2023/06/19 08:26:23;;;;;;;6.90;3.55;;;24.50;56.30;;;;;;5037459;28;86685;-87
2023/06/19 08:28:49;;;;;;;10.57;3.10;;;24.60;56.20;;;;;;5034143;28;87113;-86
2023/06/19 08:31:18;;;;;;;3.42;3.10;;;24.60;56.20;;;;;;5035523;28;86197;-88
2023/06/19 08:33:48;;;;;;;;;;;24.60;55.50;;;;;;5035786;28;86239;-89
2023/06/19 08:36:14;;;;;;;4.53;3.25;;;24.70;55.70;;;;;;5015446;28;85815;-86
2023/06/19 08:38:39;;;;;;;8.35;3.38;;;24.70;55.40;;;;;;5033902;28;87067;-90
2023/06/19 08:41:05;;;;;;;5.40;3.25;;;24.70;55.10;;;;;;5036171;27;86287;-87
2023/06/19 08:43:30;;;;;;;6.15;3.35;;;24.70;54.90;;;;;;5033042;27;86872;-87
2023/06/19 08:46:11;;;;;;;4.82;3.28;;;24.70;55.00;;;;;;5014829;28;86485;-88
2023/06/19 08:48:38;;;;;;;7.32;4.30;;;24.70;55.10;;;;;;5030652;28;89479;-88
2023/06/19 08:51:05;;;;;;;10.93;5.90;;;24.60;54.40;;;;;;5014718;28;89162;-86
2023/06/19 08:53:36;;;;;;;74.03;32.13;;;24.60;54.40;;;;;;5016189;28;86955;-86
2023/06/19 08:56:07;;;;;;;87.15;32.88;;;24.60;54.20;;;;;;5014646;28;86035;-88
2023/06/19 08:58:33;;;;;;;90.18;33.50;;;24.60;54.50;;;;;;5030140;28;88332;-88
2023/06/19 09:00:59;;;;;;;62.40;23.08;;;24.70;54.70;;;;;;5033438;28;86855;-90
2023/06/19 09:03:28;;;;;;;35.78;12.75;;;24.70;54.80;;;;;;5031207;28;86250;-92
2023/06/19 09:05:54;;;;;;;47.40;18.55;;;24.70;54.50;;;;;;5032404;28;85994;-90
2023/06/19 09:08:21;;;;;;;52.63;18.92;;;24.80;54.80;;;;;;5031100;28;88669;-89
2023/06/19 09:11:00;;;;;;;31.65;12.30;;;24.90;54.80;;;;;;5032052;27;88148;-85
2023/06/19 09:13:29;;;;;;;29.88;10.13;;;25.00;54.60;;;;;;5030823;28;86777;-91
2023/06/19 09:16:06;;;;;;;26.15;8.93;;;25.00;54.50;;;;;;5017505;28;86240;-93
2023/06/19 09:18:50;;;;;;;19.45;8.32;;;25.00;54.60;;;;;;5033612;28;86776;-89
2023/06/19 09:21:24;;;;;;;13.60;6.82;;;25.00;54.50;;;;;;5032702;28;86919;-90
2023/06/19 09:23:51;;;;;;;13.20;6.07;;;25.00;53.80;;;;;;5033331;28;87056;-87
2023/06/19 09:26:19;;;;;;;11.15;4.82;;;25.00;54.00;;;;;;5034700;28;85673;-88
2023/06/19 09:28:45;;;;;;;9.02;5.00;;;25.00;54.50;;;;;;5012540;28;89853;-88
2023/06/19 09:31:12;;;;;;;9.55;5.07;;;24.90;54.40;;;;;;5035140;28;85731;-91
2023/06/19 09:33:40;;;;;;;7.00;4.43;;;24.90;54.50;;;;;;5031668;28;86975;-87
2023/06/19 09:36:06;;;;;;;9.35;4.45;;;24.90;54.20;;;;;;5032684;28;86823;-90
2023/06/19 09:38:36;;;;;;;6.47;4.30;;;24.90;54.40;;;;;;5033091;28;87096;-92
2023/06/19 09:41:02;;;;;;;7.43;4.22;;;24.90;53.90;;;;;;5015170;28;88325;-94
2023/06/19 09:43:38;;;;;;;6.50;4.20;;;25.00;54.10;;;;;;5016393;27;86042;-89
2023/06/19 09:46:06;;;;;;;8.35;4.30;;;25.00;54.60;;;;;;5033814;28;85725;-91
2023/06/19 09:48:34;;;;;;;6.80;4.50;;;25.00;53.90;;;;;;5013074;28;89504;-92
2023/06/19 09:51:13;;;;;;;6.68;4.30;;;25.00;53.70;;;;;;5032447;28;87961;-90
2023/06/19 09:53:40;;;;;;;11.77;4.20;;;25.10;54.00;;;;;;5033067;28;86920;-89
2023/06/19 09:56:07;;;;;;;9.90;4.00;;;25.00;53.10;;;;;;5014255;28;86531;-90
2023/06/19 09:58:34;;;;;;;7.63;4.03;;;25.10;53.70;;;;;;5014481;28;91035;-90
2023/06/19 10:01:01;;;;;;;7.07;4.20;;;25.20;53.30;;;;;;5030426;28;87166;-84
2023/06/19 10:03:34;;;;;;;5.80;4.07;;;25.20;53.30;;;;;;5030650;28;86647;-87
2023/06/19 10:06:01;;;;;;;4.80;4.18;;;25.20;53.30;;;;;;5030950;28;86224;-90
2023/06/19 10:08:30;;;;;;;8.10;4.00;;;25.30;53.60;;;;;;5031925;28;87324;-88
2023/06/19 10:10:57;;;;;;;7.20;4.38;;;25.30;53.90;;;;;;5029979;28;86799;-88
2023/06/19 10:13:34;;;;;;;6.10;4.13;;;25.30;54.30;;;;;;5031164;28;86156;-87
2023/06/19 10:16:00;;;;;;;5.93;3.95;;;25.30;54.30;;;;;;5031941;28;86892;-87
2023/06/19 10:18:26;;;;;;;6.70;4.10;;;25.30;54.60;;;;;;5029854;28;87034;-88
2023/06/19 10:20:54;;;;;;;6.75;4.30;;;25.40;54.90;;;;;;5030040;28;85828;-86
2023/06/19 10:23:23;;;;;;;5.82;4.30;;;25.40;54.80;;;;;;5029426;27;86554;-90
2023/06/19 10:25:58;;;;;;;;;;;25.40;55.00;;;;;;5033919;28;86994;-87
2023/06/19 10:28:31;;;;;;;4.82;4.07;;;25.40;55.10;;;;;;5036440;28;86322;-91
2023/06/19 10:31:01;;;;;;;6.97;3.63;;;25.40;55.20;;;;;;5031773;28;87631;-86
2023/06/19 10:33:30;;;;;;;8.23;3.80;;;25.60;55.30;;;;;;5035748;28;86365;-86
2023/06/19 10:35:56;;;;;;;5.32;4.18;;;25.60;55.30;;;;;;5034594;28;86267;-90
2023/06/19 10:38:21;;;;;;;4.85;3.80;;;25.50;55.30;;;;;;5034469;28;87341;-87
2023/06/19 10:40:47;;;;;;;9.35;4.40;;;25.50;55.20;;;;;;5032996;28;86358;-88
2023/06/19 10:43:24;;;;;;;6.50;3.95;;;25.50;55.10;;;;;;5015692;28;85781;-87
2023/06/19 10:45:51;;;;;;;6.68;4.32;;;25.50;54.90;;;;;;5033403;28;86349;-87
2023/06/19 10:48:24;;;;;;;5.93;3.90;;;25.50;55.50;;;;;;5032959;28;86846;-87
2023/06/19 10:50:50;;;;;;;7.88;4.15;;;25.50;55.50;;;;;;5012798;28;88956;-85
2023/06/19 10:53:33;;;;;;;5.95;4.05;;;25.50;55.50;;;;;;5033520;28;86104;-85
2023/06/19 10:56:01;;;;;;;8.20;4.57;;;25.50;55.70;;;;;;5033853;28;86369;-84
2023/06/19 10:58:28;;;;;;;5.93;4.60;;;25.60;56.10;;;;;;5031598;28;86561;-85
2023/06/19 11:00:53;;;;;;;6.53;4.25;;;25.70;56.20;;;;;;5031155;28;86991;-86
2023/06/19 11:03:20;;;;;;;5.43;4.75;;;25.60;56.40;;;;;;5012288;28;86804;-85
2023/06/19 11:05:46;;;;;;;8.13;5.07;;;25.70;56.50;;;;;;5012997;28;85756;-85
2023/06/19 11:08:21;;;;;;;5.50;4.25;;;25.60;57.00;;;;;;5014982;28;88364;-85
2023/06/19 11:10:47;;;;;;;6.50;4.80;;;25.70;57.00;;;;;;5012462;28;88033;-84
2023/06/19 11:13:20;;;;;;;8.27;5.45;;;25.70;57.30;;;;;;5032218;28;87658;-83
2023/06/19 11:15:50;;;;;;;7.07;4.80;;;25.70;57.50;;;;;;5033605;28;86006;-87
2023/06/19 11:18:17;;;;;;;7.93;5.00;;;25.70;57.70;;;;;;5033096;27;89410;-82
2023/06/19 11:20:48;;;;;;;12.15;5.20;;;25.70;56.30;;;;;;5034075;28;86028;-84
2023/06/19 11:23:14;;;;;;;7.50;4.72;;;25.70;56.60;;;;;;5032967;28;87614;-83
2023/06/19 11:25:41;;;;;;;7.10;4.47;;;25.70;56.80;;;;;;5033223;28;85695;-87
2023/06/19 11:28:15;;;;;;;8.93;5.03;;;25.70;56.90;;;;;;5014219;28;87566;-84
2023/06/19 11:30:43;;;;;;;8.20;4.90;;;25.70;57.50;;;;;;5032749;28;85740;-88
2023/06/19 11:33:15;;;;;;;5.95;4.68;;;25.70;57.30;;;;;;5033439;28;86873;-87
2023/06/19 11:35:40;;;;;;;6.82;4.93;;;25.70;57.20;;;;;;5017054;28;86215;-90
2023/06/19 11:38:06;;;;;;;6.78;5.28;;;25.70;57.20;;;;;;5033656;28;86652;-88
2023/06/19 11:40:40;;;;;;;9.15;5.20;;;25.70;56.90;;;;;;5013981;28;86369;-84
2023/06/19 11:43:05;;;;;;;8.27;4.60;;;25.70;57.00;;;;;;5035800;27;86656;-84
2023/06/19 11:45:31;;;;;;;10.65;4.93;;;25.80;56.90;;;;;;5032024;28;86173;-83
2023/06/19 11:47:56;;;;;;;5.47;4.38;;;25.80;56.70;;;;;;5035501;28;85957;-85
2023/06/19 11:50:27;;;;;;;6.60;4.80;;;25.80;56.90;;;;;;5035806;28;86387;-83
2023/06/19 11:52:53;;;;;;;7.57;4.88;;;25.90;56.80;;;;;;5032788;28;86377;-83
2023/06/19 11:55:18;;;;;;;6.72;5.13;;;25.90;56.70;;;;;;5030773;28;86857;-85
2023/06/19 11:57:44;;;;;;;7.90;5.28;;;25.80;56.70;;;;;;5030203;28;86807;-84
2023/06/19 12:00:16;;;;;;;5.18;4.50;;;25.80;56.70;;;;;;5032949;28;86163;-84
2023/06/19 12:02:43;;;;;;;5.25;4.68;;;25.90;56.90;;;;;;5033136;28;86560;-86
2023/06/19 12:05:10;;;;;;;7.57;5.05;;;26.00;56.80;;;;;;5032306;28;85958;-85
2023/06/19 12:07:36;;;;;;;8.32;4.93;;;26.00;56.70;;;;;;5031737;28;86836;-88
2023/06/19 12:10:03;;;;;;;7.85;4.97;;;25.90;56.80;;;;;;5030337;28;86600;-84
2023/06/19 12:12:29;;;;;;;7.07;4.68;;;25.90;56.70;;;;;;5032807;28;86471;-88
2023/06/19 12:14:55;;;;;;;9.05;4.93;;;25.80;57.00;;;;;;5031951;28;86509;-87
2023/06/19 12:17:21;;;;;;;8.77;4.80;;;25.90;57.20;;;;;;5032986;28;86152;-84
2023/06/19 12:19:48;;;;;;;7.32;4.88;;;25.80;57.10;;;;;;5013617;28;88678;-87
2023/06/19 12:22:14;;;;;;;8.15;5.03;;;25.90;57.40;;;;;;5030851;28;86129;-87
2023/06/19 12:24:39;;;;;;;7.35;6.03;;;25.80;57.50;;;;;;5032820;28;86170;-86
2023/06/19 12:27:05;;;;;;;10.00;4.90;;;25.90;57.90;;;;;;5012175;28;90303;-85
2023/06/19 12:29:31;;;;;;;7.63;5.35;;;25.90;57.70;;;;;;5031679;28;86047;-88
2023/06/19 12:32:03;;;;;;;7.13;5.47;;;26.00;58.50;;;;;;5032699;28;85758;-84
2023/06/19 12:34:29;;;;;;;8.38;5.55;;;25.90;57.80;;;;;;5029310;28;87052;-85
2023/06/19 12:36:54;;;;;;;9.80;5.30;;;25.90;58.10;;;;;;5025713;28;86135;-85
2023/06/19 12:39:21;;;;;;;9.35;5.30;;;25.90;58.00;;;;;;5027508;28;87046;-86
2023/06/19 12:41:46;;;;;;;6.88;5.22;;;25.90;58.00;;;;;;5026412;28;86758;-88
2023/06/19 12:44:12;;;;;;;7.22;5.13;;;25.80;58.00;;;;;;5027558;28;86436;-84